Terminal Aerodrome Forecast
Issued by NWS Louisville, KY

Home | Current Version | Previous Version | Text Only | Print | Product List | Glossary On
Versions: 1 2 3 4 5 6 7 8 9 10 11 12 13 14 15 16 17 18
000
FTUS43 KLMK 230500
TAFBWG
TAF
KBWG 230533Z 2306/2406 04004KT P6SM SCT025 BKN100
     FM231300 04005KT 5SM -SHSN BR BKN015
     FM231600 02004KT 4SM -RA BR BKN009
     FM240200 35004KT 5SM -RASN BR BKN009=

USA.gov is the U.S. government's official web portal to all federal, state and local government web resources and services.